Time;durP1;ratioP1;P1;durP2;ratioP2;P2;SDS_P1;SDS_P2;PMS_P1;PMS_P2;Temp;Humidity;BMP_temperature;BMP_pressure;BME280_temperature;BME280_humidity;BME280_pressure;Samples;Min_cycle;Max_cycle;Signal;HPM_P1;HPM_P2
2022/11/07 00:01:08;;;;;;;89.32;59.78;;;;;;;10.95;100.00;99671.84;4995022;28;20065;-69
2022/11/07 00:03:33;;;;;;;89.18;60.13;;;;;;;10.92;100.00;99675.31;5012754;28;20026;-69
2022/11/07 00:06:00;;;;;;;94.50;62.65;;;;;;;10.76;100.00;99666.59;5011879;28;20037;-68
2022/11/07 00:08:30;;;;;;;96.47;61.63;;;;;;;10.70;100.00;99676.34;4994836;28;20033;-69
2022/11/07 00:10:57;;;;;;;96.03;62.33;;;;;;;10.76;100.00;99675.00;5012610;28;20030;-69
2022/11/07 00:13:23;;;;;;;96.93;61.30;;;;;;;10.84;100.00;99667.72;4994771;28;20040;-69
2022/11/07 00:15:49;;;;;;;90.63;59.30;;;;;;;10.76;100.00;99670.22;5012735;28;20087;-69
2022/11/07 00:18:14;;;;;;;100.57;64.50;;;;;;;10.76;100.00;99673.03;5012662;28;20012;-69
2022/11/07 00:20:39;;;;;;;99.10;62.35;;;;;;;11.01;100.00;99676.13;4995212;28;20041;-69
2022/11/07 00:23:05;;;;;;;96.82;61.42;;;;;;;10.98;100.00;99667.56;4994729;28;20033;-69
2022/11/07 00:25:30;;;;;;;98.20;62.40;;;;;;;10.86;100.00;99674.66;5011554;28;20026;-69
2022/11/07 00:27:56;;;;;;;90.07;56.63;;;;;;;10.68;100.00;99673.84;5012631;28;20029;-69
2022/11/07 00:30:21;;;;;;;97.45;56.97;;;;;;;10.62;100.00;99669.59;4994697;28;20508;-69
2022/11/07 00:32:46;;;;;;;88.95;56.53;;;;;;;10.61;100.00;99665.13;5012467;28;20500;-69
2022/11/07 00:35:12;;;;;;;86.07;53.40;;;;;;;10.82;100.00;99670.88;5010836;28;20499;-69
2022/11/07 00:37:37;;;;;;;80.35;50.15;;;;;;;11.01;100.00;99680.88;5012321;28;20105;-69
2022/11/07 00:40:03;;;;;;;83.43;52.63;;;;;;;10.87;100.00;99672.69;5012522;28;20025;-69
2022/11/07 00:42:29;;;;;;;73.15;49.50;;;;;;;10.92;100.00;99678.94;5012036;28;20022;-69
2022/11/07 00:44:54;;;;;;;77.10;50.00;;;;;;;10.96;100.00;99673.47;5012003;28;20030;-69
2022/11/07 00:47:20;;;;;;;71.35;49.15;;;;;;;10.84;100.00;99667.72;5011613;28;20041;-69
2022/11/07 00:49:45;;;;;;;79.53;52.38;;;;;;;10.76;100.00;99670.22;5011411;28;20516;-69
2022/11/07 00:52:10;;;;;;;79.63;52.15;;;;;;;10.80;100.00;99662.00;5011158;28;20473;-68
2022/11/07 00:54:36;;;;;;;73.97;49.63;;;;;;;10.85;100.00;99667.41;4994341;28;20683;-69
2022/11/07 00:57:02;;;;;;;71.05;47.13;;;;;;;10.89;100.00;99667.56;4994438;28;20416;-69
2022/11/07 00:59:28;;;;;;;74.38;46.65;;;;;;;10.85;100.00;99667.41;4994302;28;20034;-69
2022/11/07 01:01:53;;;;;;;71.00;48.33;;;;;;;10.83;100.00;99664.13;5011744;28;20026;-68
2022/11/07 01:07:03;;;;;;;65.53;45.42;;;;;;;10.90;100.00;99656.03;5008680;28;20087;-69
2022/11/07 01:09:28;;;;;;;69.78;45.95;;;;;;;10.78;100.00;99658.69;4994294;28;20026;-69
2022/11/07 01:11:54;;;;;;;68.65;46.60;;;;;;;10.78;100.00;99664.28;4993808;28;20070;-69
2022/11/07 01:14:21;;;;;;;71.72;49.35;;;;;;;10.61;100.00;99660.38;4994061;28;20501;-69
2022/11/07 01:16:46;;;;;;;79.55;50.58;;;;;;;10.51;100.00;99663.50;5011950;28;20018;-69
2022/11/07 01:19:12;;;;;;;69.78;47.55;;;;;;;10.46;100.00;99666.47;5011923;28;20532;-69
2022/11/07 01:21:40;;;;;;;70.65;48.72;;;;;;;10.32;100.00;99669.41;4994067;28;20084;-68
2022/11/07 01:24:08;;;;;;;77.32;51.67;;;;;;;10.31;100.00;99667.75;5011827;28;20058;-69
2022/11/07 01:26:34;;;;;;;80.95;51.83;;;;;;;10.28;100.00;99662.81;5011793;28;20386;-69
2022/11/07 01:29:00;;;;;;;72.22;48.83;;;;;;;10.35;100.00;99671.53;5011839;28;20030;-69
2022/11/07 01:31:25;;;;;;;79.85;51.95;;;;;;;10.47;100.00;99663.34;5011807;28;20092;-68
2022/11/07 01:33:51;;;;;;;76.40;48.90;;;;;;;10.47;100.00;99673.72;5011781;28;20077;-69
2022/11/07 01:36:17;;;;;;;80.45;50.38;;;;;;;10.52;100.00;99670.75;4993542;28;20042;-69
2022/11/07 01:38:47;;;;;;;71.63;48.35;;;;;;;10.80;100.00;99676.00;5011796;28;20396;-69
2022/11/07 01:41:25;;;;;;;69.05;47.92;;;;;;;10.85;100.00;99672.19;4994526;28;20029;-69
2022/11/07 01:44:03;;;;;;;66.13;45.65;;;;;;;10.89;100.00;99678.78;4996872;28;20058;-69
2022/11/07 01:46:34;;;;;;;70.03;43.08;;;;;;;11.03;100.00;99682.19;4997468;28;20507;-69
2022/11/07 01:49:16;;;;;;;67.32;43.78;;;;;;;11.05;100.00;99674.28;5015147;28;20195;-69
2022/11/07 01:51:47;;;;;;;61.85;42.05;;;;;;;11.04;100.00;99683.84;4997634;28;20452;-69
2022/11/07 01:54:17;;;;;;;61.88;42.60;;;;;;;11.20;100.00;99684.13;5015135;28;20026;-68
2022/11/07 01:56:44;;;;;;;59.92;41.63;;;;;;;11.20;100.00;99683.28;5015494;28;20017;-69
2022/11/07 01:59:14;;;;;;;60.33;40.33;;;;;;;11.36;100.00;99678.81;4997273;28;20025;-69
2022/11/07 02:01:41;;;;;;;55.03;39.50;;;;;;;11.42;100.00;99687.00;4997294;28;20034;-69
2022/11/07 02:04:07;;;;;;;57.42;38.10;;;;;;;11.49;100.00;99682.53;4997330;28;20092;-68
2022/11/07 02:06:48;;;;;;;62.25;39.75;;;;;;;11.56;99.76;99684.00;4996677;28;20400;-68
2022/11/07 02:09:14;;;;;;;58.40;38.28;;;;;;;11.62;99.38;99691.88;5006722;28;20416;-69
2022/11/07 02:11:40;;;;;;;52.05;37.75;;;;;;;11.30;100.00;99682.94;4996977;28;20030;-69
2022/11/07 02:14:06;;;;;;;63.08;42.10;;;;;;;10.87;100.00;99686.69;5014516;28;20037;-69
2022/11/07 02:16:34;;;;;;;61.60;42.20;;;;;;;10.69;100.00;99678.28;4993552;28;20033;-69
2022/11/07 02:19:01;;;;;;;60.53;40.22;;;;;;;11.06;100.00;99683.50;5014703;28;20037;-69
2022/11/07 02:21:44;;;;;;;61.72;40.47;;;;;;;11.30;100.00;99682.13;5013966;28;20042;-69
2022/11/07 02:24:09;;;;;;;57.05;40.53;;;;;;;11.44;100.00;99682.72;5012876;28;20041;-69
2022/11/07 02:26:37;;;;;;;52.40;37.20;;;;;;;11.48;100.00;99682.88;5014788;28;20480;-69
2022/11/07 02:29:06;;;;;;;52.85;36.67;;;;;;;11.57;99.16;99680.84;5014518;28;20026;-69
2022/11/07 02:31:32;;;;;;;56.03;38.03;;;;;;;11.66;97.94;99686.44;5014654;28;20137;-68
2022/11/07 02:33:57;;;;;;;54.20;38.80;;;;;;;11.58;98.51;99685.28;5014726;28;20469;-69
2022/11/07 02:36:24;;;;;;;59.05;40.60;;;;;;;11.50;99.21;99688.97;5012706;28;20539;-69
2022/11/07 02:38:56;;;;;;;62.72;41.45;;;;;;;11.22;100.00;99695.81;5014524;28;20037;-69
2022/11/07 02:41:25;;;;;;;58.90;40.25;;;;;;;11.24;100.00;99690.69;5013636;28;20377;-69
2022/11/07 02:43:58;;;;;;;57.83;39.08;;;;;;;11.38;100.00;99689.66;4996552;28;20451;-69
2022/11/07 02:46:25;;;;;;;59.38;39.85;;;;;;;11.42;100.00;99684.22;5014121;28;20029;-69
2022/11/07 02:48:55;;;;;;;59.22;39.60;;;;;;;11.54;100.00;99692.72;5013811;28;20038;-69
2022/11/07 02:51:20;;;;;;;62.85;38.33;;;;;;;11.63;100.00;99693.50;5014313;28;20022;-69
2022/11/07 02:53:46;;;;;;;63.25;39.08;;;;;;;11.69;100.00;99688.53;4995069;28;20044;-69
2022/11/07 02:56:12;;;;;;;63.60;37.88;;;;;;;11.64;99.31;99689.56;4996001;28;20080;-69
2022/11/07 02:58:37;;;;;;;54.42;36.70;;;;;;;11.51;100.00;99688.59;5011082;28;20109;-69
2022/11/07 03:01:07;;;;;;;61.88;38.65;;;;;;;11.47;100.00;99686.84;5013088;28;20054;-69
2022/11/07 03:03:35;;;;;;;57.47;39.05;;;;;;;11.52;100.00;99681.88;5013978;28;20033;-69
2022/11/07 03:06:01;;;;;;;64.63;40.05;;;;;;;11.51;100.00;99687.81;4995486;28;20448;-69
2022/11/07 03:08:27;;;;;;;58.67;41.25;;;;;;;11.37;100.00;99686.03;5013504;28;20029;-69
2022/11/07 03:10:53;;;;;;;60.38;39.20;;;;;;;11.41;100.00;99689.00;4996013;28;20045;-69
2022/11/07 03:13:18;;;;;;;56.38;38.55;;;;;;;11.49;100.00;99685.31;5013655;28;20057;-69
2022/11/07 03:15:44;;;;;;;64.38;38.83;;;;;;;11.45;100.00;99689.13;5012646;28;20460;-69
2022/11/07 03:18:09;;;;;;;57.92;38.85;;;;;;;11.51;100.00;99693.41;5013711;28;20160;-69
2022/11/07 03:20:35;;;;;;;57.13;36.05;;;;;;;11.62;99.81;99688.22;5013667;28;20034;-69
2022/11/07 03:23:00;;;;;;;50.60;34.72;;;;;;;11.73;98.32;99685.91;5013681;28;20037;-69
2022/11/07 03:25:26;;;;;;;51.28;35.35;;;;;;;11.74;97.28;99691.13;5013034;28;20041;-69
2022/11/07 03:27:51;;;;;;;49.97;36.85;;;;;;;11.76;97.40;99688.81;4995532;28;20455;-69
2022/11/07 03:30:17;;;;;;;53.28;36.20;;;;;;;11.73;97.94;99691.50;4995234;28;20430;-69
2022/11/07 03:32:42;;;;;;;50.90;36.25;;;;;;;11.79;97.25;99690.97;4995520;28;20044;-69
2022/11/07 03:35:09;;;;;;;53.50;34.45;;;;;;;11.75;97.40;99686.38;5013042;28;20505;-69
2022/11/07 03:37:34;;;;;;;43.03;32.08;;;;;;;11.81;96.51;99679.41;5013282;28;20075;-69
2022/11/07 03:40:00;;;;;;;45.22;32.80;;;;;;;11.87;95.46;99685.63;5011862;28;20025;-68
2022/11/07 03:42:25;;;;;;;48.75;34.45;;;;;;;11.89;94.61;99686.94;5012832;28;20161;-69
2022/11/07 03:44:51;;;;;;;48.53;32.13;;;;;;;11.94;93.74;99697.97;4994575;28;20029;-69
2022/11/07 03:47:16;;;;;;;49.10;30.67;;;;;;;11.97;93.40;99696.47;5013178;28;20022;-69
2022/11/07 03:49:42;;;;;;;46.50;31.58;;;;;;;11.94;94.18;99697.97;5012955;28;20026;-69
2022/11/07 03:52:07;;;;;;;46.70;29.58;;;;;;;11.96;93.15;99694.00;5011760;28;20018;-69
2022/11/07 03:54:33;;;;;;;43.38;30.52;;;;;;;11.97;92.99;99701.25;5012353;28;20480;-69
2022/11/07 03:56:58;;;;;;;43.38;30.50;;;;;;;11.97;92.82;99695.66;4995511;28;20061;-69
2022/11/07 03:59:24;;;;;;;38.20;26.90;;;;;;;11.99;92.10;99691.34;5011989;28;20033;-69
2022/11/07 04:01:49;;;;;;;44.97;30.55;;;;;;;11.77;94.20;99696.09;4995019;28;20459;-69
2022/11/07 04:04:15;;;;;;;42.28;28.83;;;;;;;11.83;93.21;99693.91;5012649;28;20377;-69
2022/11/07 04:06:40;;;;;;;38.78;29.02;;;;;;;11.92;92.59;99702.28;4994250;28;20033;-69
2022/11/07 04:09:06;;;;;;;48.22;30.77;;;;;;;11.87;92.13;99692.06;5012562;28;20026;-69
2022/11/07 04:17:17;;;;;;;45.88;30.85;;;;;;;11.71;92.91;99696.63;5013046;28;20048;-69
2022/11/07 04:19:43;;;;;;;53.05;32.05;;;;;;;11.56;95.26;99695.19;5012462;28;20037;-69
2022/11/07 04:22:09;;;;;;;51.53;32.55;;;;;;;11.69;93.88;99701.72;5012551;28;20025;-69
2022/11/07 04:24:34;;;;;;;42.00;31.40;;;;;;;11.72;93.10;99699.06;4994778;28;20037;-69
2022/11/07 04:29:44;;;;;;;47.17;30.50;;;;;;;11.77;92.34;99707.31;5011611;28;20041;-69
2022/11/07 04:32:09;;;;;;;44.70;32.97;;;;;;;11.51;92.98;99710.22;5012721;28;20100;-69
2022/11/07 04:34:35;;;;;;;43.50;29.38;;;;;;;11.49;93.26;99707.72;5012396;28;20057;-69
2022/11/07 04:37:00;;;;;;;43.67;31.05;;;;;;;11.47;93.63;99723.25;5012467;28;20025;-69
2022/11/07 04:39:26;;;;;;;46.28;29.58;;;;;;;11.40;94.13;99725.75;4994736;28;20034;-69
2022/11/07 04:41:51;;;;;;;58.60;40.53;;;;;;;10.81;96.61;99728.81;4994678;28;20026;-69
2022/11/07 04:44:16;;;;;;;50.58;35.85;;;;;;;10.97;97.03;99727.47;5011448;28;20022;-69
2022/11/07 04:46:42;;;;;;;51.03;33.70;;;;;;;11.18;96.32;99736.00;4994331;28;20022;-69
2022/11/07 04:49:07;;;;;;;49.20;35.20;;;;;;;11.22;95.46;99737.81;5011966;28;20042;-69
2022/11/07 04:51:33;;;;;;;51.70;32.88;;;;;;;11.26;95.46;99739.94;5012313;28;20025;-69
2022/11/07 04:53:58;;;;;;;53.83;36.13;;;;;;;11.25;95.50;99733.53;4994506;28;20013;-69
2022/11/07 04:56:24;;;;;;;59.03;39.00;;;;;;;11.32;94.57;99731.03;4994713;28;20021;-69
2022/11/07 04:58:49;;;;;;;58.38;38.47;;;;;;;11.29;94.25;99742.91;5010323;28;20036;-69
2022/11/07 05:01:15;;;;;;;52.13;38.22;;;;;;;11.32;94.15;99744.22;5011997;28;20029;-69
2022/11/07 05:03:40;;;;;;;50.58;35.38;;;;;;;11.24;94.71;99734.69;4994274;28;20033;-69
2022/11/07 05:06:06;;;;;;;54.22;35.25;;;;;;;11.34;94.06;99725.09;5011884;28;20030;-69
2022/11/07 05:08:31;;;;;;;57.78;36.50;;;;;;;11.43;93.35;99731.50;4994537;28;20026;-69
2022/11/07 05:10:57;;;;;;;56.28;35.70;;;;;;;11.46;93.05;99741.19;5012023;28;20032;-69
2022/11/07 05:13:22;;;;;;;48.83;33.83;;;;;;;11.46;92.97;99738.38;5011225;28;20036;-69
2022/11/07 05:15:49;;;;;;;52.17;35.70;;;;;;;11.41;92.72;99741.38;5011644;28;20037;-69
2022/11/07 05:18:14;;;;;;;56.60;35.33;;;;;;;11.32;93.43;99736.63;5014039;28;20025;-69
2022/11/07 05:20:40;;;;;;;50.95;35.15;;;;;;;11.38;92.76;99746.50;4998116;28;20095;-69
2022/11/07 05:23:11;;;;;;;49.08;31.80;;;;;;;11.45;91.67;99742.34;5015984;28;20062;-69
2022/11/07 05:25:38;;;;;;;56.65;34.47;;;;;;;11.42;91.29;99743.84;5015485;28;20030;-69
2022/11/07 05:28:04;;;;;;;55.75;34.30;;;;;;;11.46;91.56;99752.41;5015007;28;20028;-69
2022/11/07 05:30:30;;;;;;;55.28;34.47;;;;;;;11.42;91.02;99757.03;4998534;28;20033;-69
2022/11/07 05:32:55;;;;;;;49.63;31.48;;;;;;;11.32;92.17;99759.03;5000204;28;20027;-69
2022/11/07 05:35:21;;;;;;;51.30;34.53;;;;;;;11.36;92.40;99764.78;4993938;28;20030;-69
2022/11/07 05:37:47;;;;;;;50.38;34.95;;;;;;;11.42;92.35;99762.63;4997633;28;20032;-69
2022/11/07 05:40:13;;;;;;;62.28;38.65;;;;;;;11.47;91.91;99771.69;4996154;28;20510;-71
2022/11/07 05:42:39;;;;;;;84.72;49.63;;;;;;;11.48;91.77;99766.91;4996689;28;20026;-71
2022/11/07 05:45:05;;;;;;;99.30;61.05;;;;;;;11.06;94.37;99762.69;4995837;28;20034;-70
2022/11/07 05:47:30;;;;;;;97.47;59.88;;;;;;;10.73;98.80;99760.41;4996972;28;20125;-69
2022/11/07 05:49:56;;;;;;;104.38;66.25;;;;;;;10.84;98.30;99768.47;5014970;28;20108;-72
2022/11/07 05:52:21;;;;;;;105.20;64.75;;;;;;;10.99;98.58;99778.34;4997784;28;20018;-71
2022/11/07 05:54:47;;;;;;;89.88;59.03;;;;;;;11.17;96.75;99773.56;5014999;28;20033;-71
2022/11/07 05:57:13;;;;;;;85.47;54.28;;;;;;;11.21;96.36;99785.72;5014465;28;20032;-70
2022/11/07 05:59:38;;;;;;;85.00;52.47;;;;;;;10.94;98.55;99790.53;4996968;28;20030;-69
2022/11/07 06:02:04;;;;;;;70.63;49.15;;;;;;;10.73;100.00;99793.16;4999675;28;20037;-68
2022/11/07 06:04:29;;;;;;;67.35;47.15;;;;;;;10.34;100.00;99795.72;5015133;28;20036;-68
2022/11/07 06:06:54;;;;;;;79.28;49.42;;;;;;;10.38;100.00;99797.53;5013121;28;20109;-68
2022/11/07 06:09:20;;;;;;;72.22;49.40;;;;;;;10.29;100.00;99801.47;5003181;28;20456;-68
2022/11/07 06:11:45;;;;;;;77.25;51.15;;;;;;;10.47;100.00;99800.38;5011636;28;20033;-68
2022/11/07 06:14:11;;;;;;;80.63;45.47;;;;;;;10.52;100.00;99811.41;4996258;28;20026;-68
2022/11/07 06:16:36;;;;;;;73.72;48.03;;;;;;;10.50;100.00;99808.13;4996802;28;20021;-68
2022/11/07 06:19:02;;;;;;;68.38;44.80;;;;;;;10.47;100.00;99817.16;4996736;28;20484;-68
2022/11/07 06:21:28;;;;;;;76.90;46.25;;;;;;;10.60;100.00;99811.75;5011444;28;20431;-68
2022/11/07 06:23:53;;;;;;;67.07;44.97;;;;;;;10.78;100.00;99830.22;5013814;28;20051;-68
2022/11/07 06:26:19;;;;;;;68.88;45.85;;;;;;;10.96;100.00;99824.59;5010865;28;20025;-68
2022/11/07 06:28:44;;;;;;;70.93;48.20;;;;;;;10.97;100.00;99834.66;4995396;28;20507;-68
2022/11/07 06:31:10;;;;;;;73.97;46.38;;;;;;;10.92;100.00;99829.22;5007608;28;20038;-68
2022/11/07 06:33:35;;;;;;;65.22;48.80;;;;;;;10.98;100.00;99838.28;5009896;28;20025;-68
2022/11/07 06:36:10;;;;;;;71.30;46.53;;;;;;;10.95;100.00;99834.16;5011841;28;20026;-68
2022/11/07 06:38:36;;;;;;;71.00;48.75;;;;;;;11.03;100.00;99841.75;4994463;28;20026;-68
2022/11/07 06:41:10;;;;;;;69.82;45.83;;;;;;;11.29;100.00;99856.91;4988257;28;20029;-67
2022/11/07 06:43:35;;;;;;;71.13;49.33;;;;;;;11.40;100.00;99854.56;5011304;28;20065;-68
2022/11/07 06:46:06;;;;;;;82.20;49.95;;;;;;;11.37;100.00;99851.28;5007293;28;20064;-68
2022/11/07 06:48:32;;;;;;;73.40;49.15;;;;;;;11.42;100.00;99855.88;4988240;28;20481;-68
2022/11/07 06:50:59;;;;;;;80.25;49.88;;;;;;;11.40;100.00;99860.16;5009786;28;20030;-67
2022/11/07 06:53:24;;;;;;;74.88;48.88;;;;;;;11.53;100.00;99856.34;4989819;28;20025;-68
2022/11/07 06:55:50;;;;;;;65.07;43.97;;;;;;;11.57;100.00;99862.94;4994276;28;20148;-68
2022/11/07 06:58:16;;;;;;;66.88;43.28;;;;;;;11.75;100.00;99855.31;5012690;28;20041;-68
2022/11/07 07:00:41;;;;;;;61.40;43.15;;;;;;;11.80;100.00;99859.91;4993187;28;20129;-68
2022/11/07 07:03:07;;;;;;;54.17;38.35;;;;;;;12.03;100.00;99860.56;5011889;28;20105;-69
2022/11/07 07:05:33;;;;;;;56.75;37.03;;;;;;;12.26;100.00;99853.84;5010541;28;20038;-69
2022/11/07 07:07:59;;;;;;;55.63;33.95;;;;;;;12.40;100.00;99857.25;4992223;28;20033;-67
2022/11/07 07:10:24;;;;;;;48.75;32.50;;;;;;;12.53;99.87;99860.97;5007462;28;20049;-70
2022/11/07 07:12:51;;;;;;;46.00;31.98;;;;;;;12.68;98.06;99869.97;4995646;28;20105;-72
2022/11/07 07:15:17;;;;;;;52.45;35.17;;;;;;;12.38;98.34;99865.19;5006160;28;20079;-72
2022/11/07 07:17:42;;;;;;;51.95;36.53;;;;;;;12.35;98.70;99869.47;4994724;28;20485;-70
2022/11/07 07:20:08;;;;;;;54.40;37.03;;;;;;;12.62;99.20;99867.38;5009208;28;20026;-72
2022/11/07 07:22:34;;;;;;;57.13;37.88;;;;;;;12.76;97.87;99863.50;5012805;28;20034;-69
2022/11/07 07:24:59;;;;;;;53.90;34.03;;;;;;;12.80;97.46;99864.44;5004186;28;20037;-68
2022/11/07 07:27:25;;;;;;;47.88;33.83;;;;;;;12.79;97.21;99865.59;4991369;28;20457;-69
2022/11/07 07:29:52;;;;;;;48.95;33.35;;;;;;;12.89;96.76;99861.56;5010691;28;20475;-68
2022/11/07 07:32:18;;;;;;;53.03;31.92;;;;;;;12.91;96.33;99862.88;5012040;28;20029;-68
2022/11/07 07:34:44;;;;;;;54.42;32.17;;;;;;;13.22;96.64;99863.63;5012776;28;20084;-67
2022/11/07 07:37:09;;;;;;;46.80;32.42;;;;;;;13.50;96.22;99859.47;4994914;28;20527;-68
2022/11/07 07:39:35;;;;;;;53.58;32.22;;;;;;;13.65;94.18;99858.00;5004707;28;20033;-69
2022/11/07 07:42:00;;;;;;;46.00;30.70;;;;;;;13.72;94.07;99861.88;4986776;28;20041;-68
2022/11/07 07:44:26;;;;;;;50.08;32.78;;;;;;;13.86;92.87;99855.13;5009436;28;20765;-68
2022/11/07 07:46:51;;;;;;;50.47;33.38;;;;;;;14.09;91.95;99861.13;5011046;28;20033;-68
2022/11/07 07:49:17;;;;;;;42.92;31.35;;;;;;;14.21;91.23;99851.88;5009575;28;21413;-68
2022/11/07 07:51:42;;;;;;;39.95;29.65;;;;;;;14.12;91.02;99856.78;4992247;28;20476;-68
2022/11/07 07:54:10;;;;;;;55.70;29.70;;;;;;;14.17;89.54;99848.94;4991435;28;20485;-68
2022/11/07 07:56:35;;;;;;;39.47;27.08;;;;;;;14.28;89.24;99854.13;5008198;28;20485;-68
2022/11/07 07:59:02;;;;;;;41.85;28.10;;;;;;;14.38;89.40;99845.22;5011466;28;20036;-68
2022/11/07 08:01:27;;;;;;;44.70;29.33;;;;;;;14.56;87.75;99848.59;5012041;28;20037;-68
2022/11/07 08:03:53;;;;;;;45.20;27.80;;;;;;;14.52;88.67;99846.84;5010156;28;20034;-68
2022/11/07 08:06:18;;;;;;;37.85;26.83;;;;;;;14.62;88.25;99854.00;5011982;28;20033;-68
2022/11/07 08:08:44;;;;;;;44.65;26.60;;;;;;;14.86;87.46;99853.19;4992028;28;20044;-68
2022/11/07 08:11:10;;;;;;;45.72;26.75;;;;;;;14.94;84.62;99854.22;5010887;28;20037;-68
2022/11/07 08:13:35;;;;;;;49.28;26.73;;;;;;;14.97;85.31;99857.16;5011812;28;20026;-68
2022/11/07 08:16:03;;;;;;;35.22;25.30;;;;;;;15.16;83.07;99859.31;5026808;28;20042;-67
2022/11/07 08:18:28;;;;;;;32.08;22.23;;;;;;;14.82;82.08;99857.84;4990965;28;20331;-68
2022/11/07 08:20:55;;;;;;;41.30;24.05;;;;;;;14.91;82.26;99852.13;4990430;28;20034;-67
2022/11/07 08:23:21;;;;;;;43.35;22.67;;;;;;;15.13;82.26;99856.38;5003873;28;20523;-67
2022/11/07 08:25:56;;;;;;;37.85;22.00;;;;;;;15.18;81.07;99861.75;5008378;28;20125;-68
2022/11/07 08:28:23;;;;;;;40.78;21.02;;;;;;;15.36;80.03;99862.28;4992555;28;20105;-69
2022/11/07 08:31:01;;;;;;;39.03;22.75;;;;;;;15.51;79.79;99857.88;4993970;28;20505;-69
2022/11/07 08:33:27;;;;;;;36.38;20.35;;;;;;;15.78;78.72;99863.06;4992105;28;20038;-68
2022/11/07 08:35:59;;;;;;;25.42;17.77;;;;;;;15.84;76.91;99865.25;5003048;28;20170;-67
2022/11/07 08:38:25;;;;;;;33.67;20.00;;;;;;;15.72;78.08;99868.94;5010527;28;20037;-67
2022/11/07 08:40:51;;;;;;;30.77;20.65;;;;;;;15.81;77.36;99871.63;4994065;28;20030;-67
2022/11/07 08:43:17;;;;;;;28.40;17.30;;;;;;;16.00;76.14;99872.94;4993984;28;20120;-67
2022/11/07 08:45:47;;;;;;;34.17;17.92;;;;;;;16.15;74.56;99874.13;5010623;28;20045;-67
2022/11/07 08:48:14;;;;;;;27.73;17.33;;;;;;;16.08;74.67;99871.94;5010503;28;20508;-67
2022/11/07 08:50:39;;;;;;;28.27;18.08;;;;;;;16.08;74.52;99874.78;5011471;28;20499;-67
2022/11/07 08:53:05;;;;;;;31.85;16.05;;;;;;;16.09;72.94;99879.22;5008817;28;20030;-67
2022/11/07 08:55:31;;;;;;;25.60;16.83;;;;;;;15.96;72.47;99872.84;5010416;28;20043;-67
2022/11/07 08:57:58;;;;;;;27.90;16.75;;;;;;;16.03;71.78;99875.03;5011216;28;20034;-67
2022/11/07 09:00:24;;;;;;;34.10;16.98;;;;;;;16.16;72.25;99875.78;5011349;28;20033;-67
2022/11/07 09:02:49;;;;;;;27.55;18.05;;;;;;;16.20;71.79;99882.31;5011079;28;20040;-67
2022/11/07 09:05:15;;;;;;;27.65;17.88;;;;;;;16.07;72.52;99878.78;4993410;28;20037;-67
2022/11/07 09:07:40;;;;;;;30.23;18.17;;;;;;;16.35;72.50;99877.88;5010769;28;20038;-67
2022/11/07 09:10:07;;;;;;;29.85;18.58;;;;;;;16.17;71.08;99879.41;4992474;28;20428;-67
2022/11/07 09:12:32;;;;;;;28.45;17.35;;;;;;;16.13;71.60;99882.97;5009973;28;20026;-67
2022/11/07 09:14:57;;;;;;;29.50;18.15;;;;;;;16.23;70.66;99880.78;5011163;28;20085;-67
2022/11/07 09:17:23;;;;;;;28.83;18.10;;;;;;;16.35;72.03;99882.69;5011295;28;20025;-67
2022/11/07 09:19:48;;;;;;;37.53;20.25;;;;;;;16.17;70.20;99885.88;5008833;28;20044;-67
2022/11/07 09:22:14;;;;;;;28.20;19.20;;;;;;;16.14;71.44;99881.78;5008121;28;20068;-68
2022/11/07 09:24:39;;;;;;;45.72;23.30;;;;;;;15.91;71.16;99878.75;4992740;28;20567;-68
2022/11/07 09:27:05;;;;;;;34.35;21.30;;;;;;;15.91;71.93;99881.56;5009128;28;20044;-68
2022/11/07 09:29:30;;;;;;;37.40;20.08;;;;;;;15.84;72.16;99878.50;5010583;28;20108;-67
2022/11/07 09:31:56;;;;;;;27.23;19.33;;;;;;;15.82;72.04;99880.88;5010621;28;21372;-67
2022/11/07 09:34:21;;;;;;;34.97;20.05;;;;;;;16.25;71.59;99875.59;5010527;28;20457;-67
2022/11/07 09:36:46;;;;;;;37.15;20.33;;;;;;;16.23;71.02;99867.50;4992436;28;20104;-67
2022/11/07 09:39:12;;;;;;;36.72;23.73;;;;;;;16.06;71.79;99870.66;5010913;28;20026;-67
2022/11/07 09:41:55;;;;;;;35.83;24.02;;;;;;;15.89;72.09;99869.81;5009681;28;20030;-68
2022/11/07 09:44:39;;;;;;;40.20;23.30;;;;;;;15.95;72.15;99865.56;5009008;28;20143;-67
2022/11/07 09:47:13;;;;;;;39.10;22.17;;;;;;;16.02;72.05;99866.94;4993035;28;20073;-67
2022/11/07 09:49:46;;;;;;;45.30;23.92;;;;;;;16.12;72.74;99867.22;5010909;28;20485;-67
2022/11/07 09:52:14;;;;;;;44.55;26.42;;;;;;;15.79;72.10;99865.50;5010285;28;20025;-67
2022/11/07 09:54:44;;;;;;;46.10;26.48;;;;;;;15.75;72.28;99861.78;4993466;28;20026;-68
2022/11/07 09:57:15;;;;;;;42.70;28.55;;;;;;;15.82;72.83;99864.78;5009818;28;20026;-67
2022/11/07 09:59:57;;;;;;;48.92;26.55;;;;;;;15.97;72.37;99853.91;5011023;28;20164;-67
2022/11/07 10:02:26;;;;;;;40.17;26.92;;;;;;;16.08;72.12;99865.47;5008882;28;20040;-68
2022/11/07 10:04:57;;;;;;;44.40;27.08;;;;;;;16.12;72.83;99853.09;5003282;28;20540;-67
2022/11/07 10:07:59;;;;;;;38.80;25.75;;;;;;;16.10;71.86;99855.47;5004538;28;20022;-67
2022/11/07 10:10:36;;;;;;;40.72;26.70;;;;;;;16.05;72.59;99857.75;5005197;28;20018;-67
2022/11/07 10:13:54;;;;;;;43.00;27.25;;;;;;;15.86;72.77;99856.41;5011069;28;20072;-69
2022/11/07 10:16:35;;;;;;;37.83;28.08;;;;;;;16.27;71.30;99842.16;4991111;28;20030;-67
2022/11/07 10:19:00;;;;;;;;;;;;;;;16.59;71.09;99844.13;4985741;28;21591;-67
2022/11/07 10:22:01;;;;;;;51.45;34.17;;;;;;;16.67;70.12;99843.13;5011465;28;19933;-67
2022/11/07 10:24:31;;;;;;;45.00;30.98;;;;;;;16.94;69.56;99838.50;4991110;28;20073;-67
2022/11/07 10:26:57;;;;;;;;;;;;;;;17.04;69.28;99831.47;5011311;28;20153;-67
2022/11/07 10:29:27;;;;;;;55.70;34.38;;;;;;;17.05;69.28;99826.66;5008963;28;20398;-68
2022/11/07 10:32:21;;;;;;;;;;;;;;;17.30;68.40;99824.34;5010285;28;20033;-67
2022/11/07 10:35:27;;;;;;;67.60;30.98;;;;;;;17.41;67.62;99824.56;4994945;28;20300;-67
2022/11/07 10:37:55;;;;;;;50.30;32.13;;;;;;;17.59;66.27;99815.63;4992040;28;20559;-69
2022/11/07 10:40:22;;;;;;;44.15;28.88;;;;;;;17.56;67.28;99813.53;5011125;28;20538;-68
2022/11/07 10:42:49;;;;;;;45.08;30.02;;;;;;;17.74;65.72;99814.72;4993739;28;20034;-68
2022/11/07 10:45:16;;;;;;;43.28;30.98;;;;;;;17.80;65.54;99810.38;5010453;28;20034;-67
2022/11/07 10:47:53;;;;;;;41.83;29.20;;;;;;;17.66;64.81;99801.63;4993303;28;20046;-66
2022/11/07 10:50:21;;;;;;;45.38;29.85;;;;;;;17.53;65.68;99800.97;4993739;28;20583;-66
2022/11/07 10:52:55;;;;;;;36.45;27.65;;;;;;;17.88;63.80;99799.19;5011035;28;20030;-67
2022/11/07 10:55:21;;;;;;;38.30;27.33;;;;;;;17.92;63.42;99805.72;5009771;28;20429;-67
2022/11/07 10:57:55;;;;;;;37.58;25.13;;;;;;;17.98;61.51;99800.56;5009941;28;20026;-67
2022/11/07 11:00:27;;;;;;;33.40;24.88;;;;;;;17.66;61.80;99790.31;5000334;28;20057;-68
2022/11/07 11:02:55;;;;;;;46.13;28.88;;;;;;;17.84;61.43;99793.47;5009776;28;20112;-68
2022/11/07 11:05:29;;;;;;;45.58;26.90;;;;;;;17.82;62.00;99790.19;5006372;28;20135;-68
2022/11/07 11:08:05;;;;;;;39.45;25.17;;;;;;;17.65;61.64;99788.66;5010261;28;20037;-68
2022/11/07 11:10:37;;;;;;;39.08;27.25;;;;;;;17.82;63.55;99782.50;5010919;28;20057;-68
2022/11/07 11:13:03;;;;;;;37.95;26.80;;;;;;;17.89;61.80;99778.19;4992525;28;20022;-68
2022/11/07 11:15:28;;;;;;;35.13;25.83;;;;;;;18.00;60.12;99776.34;5009828;28;20396;-68
2022/11/07 11:18:06;;;;;;;40.22;27.60;;;;;;;17.91;60.21;99767.31;5006257;28;20037;-68
2022/11/07 11:20:42;;;;;;;42.97;27.05;;;;;;;17.97;60.54;99765.78;5016703;28;20050;-68
2022/11/07 11:23:20;;;;;;;41.20;27.70;;;;;;;18.21;60.43;99756.09;4991060;28;20501;-68
2022/11/07 11:25:48;;;;;;;37.42;24.92;;;;;;;18.36;59.51;99756.31;4986229;28;20101;-68
2022/11/07 11:28:26;;;;;;;39.35;25.60;;;;;;;18.30;59.90;99752.19;4985984;28;20111;-68